sensor_id;sensor_type;location;lat;lon;timestamp;temperature;humidity
28336;DHT22;15592;53.656;7.276;2023-03-25T00:00:06;9.50;99.90
28336;DHT22;15592;53.656;7.276;2023-03-25T00:02:38;9.50;99.90
28336;DHT22;15592;53.656;7.276;2023-03-25T00:05:05;9.50;99.90
28336;DHT22;15592;53.656;7.276;2023-03-25T00:07:31;9.40;99.90
28336;DHT22;15592;53.656;7.276;2023-03-25T00:09:56;9.40;99.90
28336;DHT22;15592;53.656;7.276;2023-03-25T00:12:22;9.50;99.90
28336;DHT22;15592;53.656;7.276;2023-03-25T00:14:48;9.40;99.90
28336;DHT22;15592;53.656;7.276;2023-03-25T00:17:19;9.40;99.90
28336;DHT22;15592;53.656;7.276;2023-03-25T00:19:45;9.50;99.90
28336;DHT22;15592;53.656;7.276;2023-03-25T00:22:11;9.50;99.90
28336;DHT22;15592;53.656;7.276;2023-03-25T00:24:36;9.50;99.90
28336;DHT22;15592;53.656;7.276;2023-03-25T00:27:02;9.50;99.90
28336;DHT22;15592;53.656;7.276;2023-03-25T00:29:28;9.50;99.90
28336;DHT22;15592;53.656;7.276;2023-03-25T00:31:53;9.60;99.90
28336;DHT22;15592;53.656;7.276;2023-03-25T00:34:19;9.50;99.90
28336;DHT22;15592;53.656;7.276;2023-03-25T00:36:45;9.50;99.90
28336;DHT22;15592;53.656;7.276;2023-03-25T00:39:10;9.50;99.90
28336;DHT22;15592;53.656;7.276;2023-03-25T00:41:36;9.40;99.90
28336;DHT22;15592;53.656;7.276;2023-03-25T00:44:03;9.40;99.90
28336;DHT22;15592;53.656;7.276;2023-03-25T00:46:32;9.40;99.90
28336;DHT22;15592;53.656;7.276;2023-03-25T00:48:58;9.40;99.90
28336;DHT22;15592;53.656;7.276;2023-03-25T00:51:25;9.40;99.90
28336;DHT22;15592;53.656;7.276;2023-03-25T00:53:55;9.30;99.90
28336;DHT22;15592;53.656;7.276;2023-03-25T00:56:25;9.30;99.90
28336;DHT22;15592;53.656;7.276;2023-03-25T00:58:52;9.30;99.90
28336;DHT22;15592;53.656;7.276;2023-03-25T01:01:20;9.30;99.90
28336;DHT22;15592;53.656;7.276;2023-03-25T01:03:52;9.30;99.90
28336;DHT22;15592;53.656;7.276;2023-03-25T01:06:27;9.30;99.90
28336;DHT22;15592;53.656;7.276;2023-03-25T01:08:57;9.30;99.90
28336;DHT22;15592;53.656;7.276;2023-03-25T01:11:26;9.30;99.90
28336;DHT22;15592;53.656;7.276;2023-03-25T01:13:54;9.20;99.90
28336;DHT22;15592;53.656;7.276;2023-03-25T01:16:21;9.20;99.90
28336;DHT22;15592;53.656;7.276;2023-03-25T01:18:46;9.20;99.90
28336;DHT22;15592;53.656;7.276;2023-03-25T01:21:13;9.20;99.90
28336;DHT22;15592;53.656;7.276;2023-03-25T01:23:39;9.10;99.90
28336;DHT22;15592;53.656;7.276;2023-03-25T01:26:05;9.10;99.90
28336;DHT22;15592;53.656;7.276;2023-03-25T01:28:30;9.10;99.90
28336;DHT22;15592;53.656;7.276;2023-03-25T01:31:01;9.00;99.90
28336;DHT22;15592;53.656;7.276;2023-03-25T01:33:27;9.00;99.90
28336;DHT22;15592;53.656;7.276;2023-03-25T01:35:52;9.00;99.90
28336;DHT22;15592;53.656;7.276;2023-03-25T01:38:18;9.00;99.90
28336;DHT22;15592;53.656;7.276;2023-03-25T01:40:49;8.90;99.90
28336;DHT22;15592;53.656;7.276;2023-03-25T01:43:15;8.90;99.90
28336;DHT22;15592;53.656;7.276;2023-03-25T01:45:42;9.00;99.90
28336;DHT22;15592;53.656;7.276;2023-03-25T01:48:19;9.00;99.90
28336;DHT22;15592;53.656;7.276;2023-03-25T01:50:59;9.00;99.90
28336;DHT22;15592;53.656;7.276;2023-03-25T01:53:28;9.00;99.90
28336;DHT22;15592;53.656;7.276;2023-03-25T01:55:54;9.00;99.90
28336;DHT22;15592;53.656;7.276;2023-03-25T01:58:22;9.00;99.90
28336;DHT22;15592;53.656;7.276;2023-03-25T02:00:49;9.00;99.90
28336;DHT22;15592;53.656;7.276;2023-03-25T02:03:17;9.00;99.90
28336;DHT22;15592;53.656;7.276;2023-03-25T02:05:54;9.00;99.90
28336;DHT22;15592;53.656;7.276;2023-03-25T02:08:22;9.10;99.90
28336;DHT22;15592;53.656;7.276;2023-03-25T02:10:48;9.10;99.90
28336;DHT22;15592;53.656;7.276;2023-03-25T02:13:15;9.10;99.90
28336;DHT22;15592;53.656;7.276;2023-03-25T02:18:33;9.00;99.90
28336;DHT22;15592;53.656;7.276;2023-03-25T02:24:03;9.00;99.90
28336;DHT22;15592;53.656;7.276;2023-03-25T02:29:54;9.00;99.90
28336;DHT22;15592;53.656;7.276;2023-03-25T02:32:54;9.00;99.90
28336;DHT22;15592;53.656;7.276;2023-03-25T02:35:48;8.90;99.90
28336;DHT22;15592;53.656;7.276;2023-03-25T02:43:45;8.90;99.90
28336;DHT22;15592;53.656;7.276;2023-03-25T02:46:17;8.80;99.90
28336;DHT22;15592;53.656;7.276;2023-03-25T02:49:01;8.80;99.90
28336;DHT22;15592;53.656;7.276;2023-03-25T02:51:31;8.80;99.90
28336;DHT22;15592;53.656;7.276;2023-03-25T02:54:11;8.80;99.90
28336;DHT22;15592;53.656;7.276;2023-03-25T02:56:39;8.80;99.90
28336;DHT22;15592;53.656;7.276;2023-03-25T02:59:07;8.70;99.90
28336;DHT22;15592;53.656;7.276;2023-03-25T03:01:34;8.80;99.90
28336;DHT22;15592;53.656;7.276;2023-03-25T03:04:00;8.70;99.90
28336;DHT22;15592;53.656;7.276;2023-03-25T03:06:26;8.70;99.90
28336;DHT22;15592;53.656;7.276;2023-03-25T03:09:34;8.80;99.90
28336;DHT22;15592;53.656;7.276;2023-03-25T03:12:12;8.70;99.90
28336;DHT22;15592;53.656;7.276;2023-03-25T03:18:02;8.70;99.90
28336;DHT22;15592;53.656;7.276;2023-03-25T03:20:37;8.70;99.90
28336;DHT22;15592;53.656;7.276;2023-03-25T03:25:43;8.70;99.90
28336;DHT22;15592;53.656;7.276;2023-03-25T03:31:03;8.70;99.90
28336;DHT22;15592;53.656;7.276;2023-03-25T03:33:40;8.70;99.90
28336;DHT22;15592;53.656;7.276;2023-03-25T03:36:09;8.70;99.90
28336;DHT22;15592;53.656;7.276;2023-03-25T03:38:44;8.70;99.90
28336;DHT22;15592;53.656;7.276;2023-03-25T03:41:16;8.70;99.90
28336;DHT22;15592;53.656;7.276;2023-03-25T03:44:23;8.70;99.90
28336;DHT22;15592;53.656;7.276;2023-03-25T03:47:08;8.70;99.90
28336;DHT22;15592;53.656;7.276;2023-03-25T03:49:38;8.70;99.90
28336;DHT22;15592;53.656;7.276;2023-03-25T03:52:17;8.70;99.90
28336;DHT22;15592;53.656;7.276;2023-03-25T03:54:53;8.70;99.90
28336;DHT22;15592;53.656;7.276;2023-03-25T04:00:28;8.70;99.90
28336;DHT22;15592;53.656;7.276;2023-03-25T04:05:26;8.70;99.90
28336;DHT22;15592;53.656;7.276;2023-03-25T04:08:06;8.70;99.90
28336;DHT22;15592;53.656;7.276;2023-03-25T04:10:44;8.70;99.90
28336;DHT22;15592;53.656;7.276;2023-03-25T04:13:18;8.70;99.90
28336;DHT22;15592;53.656;7.276;2023-03-25T04:15:45;8.70;99.90
28336;DHT22;15592;53.656;7.276;2023-03-25T04:18:10;8.70;99.90
28336;DHT22;15592;53.656;7.276;2023-03-25T04:20:37;8.70;99.90
28336;DHT22;15592;53.656;7.276;2023-03-25T04:23:10;8.70;99.90
28336;DHT22;15592;53.656;7.276;2023-03-25T04:25:43;8.70;99.90
28336;DHT22;15592;53.656;7.276;2023-03-25T04:28:14;8.70;99.90
28336;DHT22;15592;53.656;7.276;2023-03-25T04:30:42;8.70;99.90
28336;DHT22;15592;53.656;7.276;2023-03-25T04:33:10;8.70;99.90
28336;DHT22;15592;53.656;7.276;2023-03-25T04:35:36;8.70;99.90
28336;DHT22;15592;53.656;7.276;2023-03-25T04:38:03;8.70;99.90
28336;DHT22;15592;53.656;7.276;2023-03-25T04:40:30;8.70;99.90
28336;DHT22;15592;53.656;7.276;2023-03-25T04:42:56;8.70;99.90
28336;DHT22;15592;53.656;7.276;2023-03-25T04:45:21;8.70;99.90
28336;DHT22;15592;53.656;7.276;2023-03-25T04:47:49;8.70;99.90
28336;DHT22;15592;53.656;7.276;2023-03-25T04:50:26;8.70;99.90
28336;DHT22;15592;53.656;7.276;2023-03-25T04:52:53;8.70;99.90
28336;DHT22;15592;53.656;7.276;2023-03-25T04:55:20;8.70;99.90
28336;DHT22;15592;53.656;7.276;2023-03-25T04:57:47;8.60;99.90
28336;DHT22;15592;53.656;7.276;2023-03-25T05:00:15;8.60;99.90
28336;DHT22;15592;53.656;7.276;2023-03-25T05:02:46;8.60;99.90
28336;DHT22;15592;53.656;7.276;2023-03-25T05:05:16;8.50;99.90
28336;DHT22;15592;53.656;7.276;2023-03-25T05:07:44;8.50;99.90
28336;DHT22;15592;53.656;7.276;2023-03-25T05:10:11;8.50;99.90
28336;DHT22;15592;53.656;7.276;2023-03-25T05:12:37;8.40;99.90
28336;DHT22;15592;53.656;7.276;2023-03-25T05:15:03;8.40;99.90
28336;DHT22;15592;53.656;7.276;2023-03-25T05:17:29;8.30;99.90
28336;DHT22;15592;53.656;7.276;2023-03-25T05:19:55;8.30;99.90
28336;DHT22;15592;53.656;7.276;2023-03-25T05:22:21;8.30;99.90
28336;DHT22;15592;53.656;7.276;2023-03-25T05:24:47;8.30;99.90
28336;DHT22;15592;53.656;7.276;2023-03-25T05:27:13;8.30;99.90
28336;DHT22;15592;53.656;7.276;2023-03-25T05:29:38;8.30;99.90
28336;DHT22;15592;53.656;7.276;2023-03-25T05:32:04;8.40;99.90
28336;DHT22;15592;53.656;7.276;2023-03-25T05:34:30;8.40;99.90
28336;DHT22;15592;53.656;7.276;2023-03-25T05:36:56;8.40;99.90
28336;DHT22;15592;53.656;7.276;2023-03-25T05:39:21;8.50;99.90
28336;DHT22;15592;53.656;7.276;2023-03-25T05:41:48;8.50;99.90
28336;DHT22;15592;53.656;7.276;2023-03-25T05:44:14;8.50;99.90
28336;DHT22;15592;53.656;7.276;2023-03-25T05:46:43;8.50;99.90
28336;DHT22;15592;53.656;7.276;2023-03-25T05:49:08;8.50;99.90
28336;DHT22;15592;53.656;7.276;2023-03-25T05:51:35;8.50;99.90
28336;DHT22;15592;53.656;7.276;2023-03-25T05:54:04;8.50;99.90
28336;DHT22;15592;53.656;7.276;2023-03-25T05:56:35;8.60;99.90
28336;DHT22;15592;53.656;7.276;2023-03-25T05:59:01;8.60;99.90
28336;DHT22;15592;53.656;7.276;2023-03-25T06:01:28;8.70;99.90
28336;DHT22;15592;53.656;7.276;2023-03-25T06:03:54;8.70;99.90
28336;DHT22;15592;53.656;7.276;2023-03-25T06:06:20;8.60;99.90
28336;DHT22;15592;53.656;7.276;2023-03-25T06:08:47;8.60;99.90
28336;DHT22;15592;53.656;7.276;2023-03-25T06:11:17;8.60;99.90
28336;DHT22;15592;53.656;7.276;2023-03-25T06:13:44;8.60;99.90
28336;DHT22;15592;53.656;7.276;2023-03-25T06:16:22;8.60;99.90
28336;DHT22;15592;53.656;7.276;2023-03-25T06:18:51;8.60;99.90
28336;DHT22;15592;53.656;7.276;2023-03-25T06:21:21;8.70;99.90
28336;DHT22;15592;53.656;7.276;2023-03-25T06:23:47;8.60;99.90
28336;DHT22;15592;53.656;7.276;2023-03-25T06:26:15;8.60;99.90
28336;DHT22;15592;53.656;7.276;2023-03-25T06:28:41;8.70;99.90
28336;DHT22;15592;53.656;7.276;2023-03-25T06:31:14;8.70;99.90
28336;DHT22;15592;53.656;7.276;2023-03-25T06:33:46;8.70;99.90
28336;DHT22;15592;53.656;7.276;2023-03-25T06:36:13;8.60;99.90
28336;DHT22;15592;53.656;7.276;2023-03-25T06:38:46;8.70;99.90
28336;DHT22;15592;53.656;7.276;2023-03-25T06:41:13;8.70;99.90
28336;DHT22;15592;53.656;7.276;2023-03-25T06:43:39;8.70;99.90
28336;DHT22;15592;53.656;7.276;2023-03-25T06:46:06;8.70;99.90
28336;DHT22;15592;53.656;7.276;2023-03-25T06:48:32;8.70;99.90
28336;DHT22;15592;53.656;7.276;2023-03-25T06:50:58;8.70;99.90
28336;DHT22;15592;53.656;7.276;2023-03-25T06:53:23;8.70;99.90
28336;DHT22;15592;53.656;7.276;2023-03-25T06:55:49;8.80;99.90
28336;DHT22;15592;53.656;7.276;2023-03-25T06:58:15;8.70;99.90
28336;DHT22;15592;53.656;7.276;2023-03-25T07:00:40;8.80;99.90
28336;DHT22;15592;53.656;7.276;2023-03-25T07:03:06;8.80;99.90
28336;DHT22;15592;53.656;7.276;2023-03-25T07:05:32;8.80;99.90
28336;DHT22;15592;53.656;7.276;2023-03-25T07:07:58;8.90;99.90
28336;DHT22;15592;53.656;7.276;2023-03-25T07:10:23;8.90;99.90
28336;DHT22;15592;53.656;7.276;2023-03-25T07:12:49;8.90;99.90
28336;DHT22;15592;53.656;7.276;2023-03-25T07:15:15;8.90;99.90
28336;DHT22;15592;53.656;7.276;2023-03-25T07:17:41;8.90;99.90
28336;DHT22;15592;53.656;7.276;2023-03-25T07:20:08;9.00;99.90
28336;DHT22;15592;53.656;7.276;2023-03-25T07:22:33;8.90;99.90
28336;DHT22;15592;53.656;7.276;2023-03-25T07:24:59;8.90;99.90
28336;DHT22;15592;53.656;7.276;2023-03-25T07:27:25;8.80;99.90
28336;DHT22;15592;53.656;7.276;2023-03-25T07:29:51;8.80;99.90
28336;DHT22;15592;53.656;7.276;2023-03-25T07:32:17;8.80;99.90
28336;DHT22;15592;53.656;7.276;2023-03-25T07:34:42;8.80;99.90
28336;DHT22;15592;53.656;7.276;2023-03-25T07:37:08;8.80;99.90
28336;DHT22;15592;53.656;7.276;2023-03-25T07:39:33;8.80;99.90
28336;DHT22;15592;53.656;7.276;2023-03-25T07:41:59;8.80;99.90
28336;DHT22;15592;53.656;7.276;2023-03-25T07:44:25;8.80;99.90
28336;DHT22;15592;53.656;7.276;2023-03-25T07:46:50;8.80;99.90
28336;DHT22;15592;53.656;7.276;2023-03-25T07:49:16;8.80;99.90
28336;DHT22;15592;53.656;7.276;2023-03-25T07:51:42;8.80;99.90
28336;DHT22;15592;53.656;7.276;2023-03-25T07:54:09;8.80;99.90
28336;DHT22;15592;53.656;7.276;2023-03-25T07:56:35;8.80;99.90
28336;DHT22;15592;53.656;7.276;2023-03-25T07:59:01;8.80;99.90
28336;DHT22;15592;53.656;7.276;2023-03-25T08:01:27;8.80;99.90
28336;DHT22;15592;53.656;7.276;2023-03-25T08:03:53;8.80;99.90
28336;DHT22;15592;53.656;7.276;2023-03-25T08:06:18;8.80;99.90
28336;DHT22;15592;53.656;7.276;2023-03-25T08:08:44;8.90;99.90
28336;DHT22;15592;53.656;7.276;2023-03-25T08:11:10;8.90;99.90
28336;DHT22;15592;53.656;7.276;2023-03-25T08:13:36;8.90;99.90
28336;DHT22;15592;53.656;7.276;2023-03-25T08:16:02;9.00;99.90
28336;DHT22;15592;53.656;7.276;2023-03-25T08:18:28;9.00;99.90
28336;DHT22;15592;53.656;7.276;2023-03-25T08:20:53;9.10;99.90
28336;DHT22;15592;53.656;7.276;2023-03-25T08:23:20;9.30;99.90
28336;DHT22;15592;53.656;7.276;2023-03-25T08:25:48;9.40;99.90
28336;DHT22;15592;53.656;7.276;2023-03-25T08:28:18;9.40;99.90
28336;DHT22;15592;53.656;7.276;2023-03-25T08:30:48;9.50;99.90
28336;DHT22;15592;53.656;7.276;2023-03-25T08:33:15;9.40;99.90
28336;DHT22;15592;53.656;7.276;2023-03-25T08:35:43;9.40;99.90
28336;DHT22;15592;53.656;7.276;2023-03-25T08:38:08;9.40;99.90
28336;DHT22;15592;53.656;7.276;2023-03-25T08:40:35;9.30;99.90
28336;DHT22;15592;53.656;7.276;2023-03-25T08:43:04;9.20;99.90
28336;DHT22;15592;53.656;7.276;2023-03-25T08:45:29;9.20;99.90
28336;DHT22;15592;53.656;7.276;2023-03-25T08:47:57;9.20;99.90
28336;DHT22;15592;53.656;7.276;2023-03-25T08:50:23;9.20;99.90
28336;DHT22;15592;53.656;7.276;2023-03-25T08:52:48;9.20;99.90
28336;DHT22;15592;53.656;7.276;2023-03-25T08:55:18;9.30;99.90
28336;DHT22;15592;53.656;7.276;2023-03-25T08:57:43;9.40;99.90
28336;DHT22;15592;53.656;7.276;2023-03-25T09:00:10;9.60;99.90
28336;DHT22;15592;53.656;7.276;2023-03-25T09:02:40;9.60;99.90
28336;DHT22;15592;53.656;7.276;2023-03-25T09:05:11;9.60;99.90
28336;DHT22;15592;53.656;7.276;2023-03-25T09:07:37;9.50;99.90
28336;DHT22;15592;53.656;7.276;2023-03-25T09:10:03;9.50;99.90
28336;DHT22;15592;53.656;7.276;2023-03-25T09:12:29;9.40;99.90
28336;DHT22;15592;53.656;7.276;2023-03-25T09:14:55;9.30;99.90
28336;DHT22;15592;53.656;7.276;2023-03-25T09:17:20;9.30;99.90
28336;DHT22;15592;53.656;7.276;2023-03-25T09:19:46;9.30;99.90
28336;DHT22;15592;53.656;7.276;2023-03-25T09:22:12;9.30;99.90
28336;DHT22;15592;53.656;7.276;2023-03-25T09:24:38;9.30;99.90
28336;DHT22;15592;53.656;7.276;2023-03-25T09:27:05;9.30;99.90
28336;DHT22;15592;53.656;7.276;2023-03-25T09:29:30;9.40;99.90
28336;DHT22;15592;53.656;7.276;2023-03-25T09:31:56;9.40;99.90
28336;DHT22;15592;53.656;7.276;2023-03-25T09:34:24;9.30;99.90
28336;DHT22;15592;53.656;7.276;2023-03-25T09:36:49;9.10;99.90
28336;DHT22;15592;53.656;7.276;2023-03-25T09:39:16;8.90;99.90
28336;DHT22;15592;53.656;7.276;2023-03-25T09:44:32;8.60;99.90
28336;DHT22;15592;53.656;7.276;2023-03-25T09:47:00;8.60;99.90
28336;DHT22;15592;53.656;7.276;2023-03-25T09:49:36;8.60;99.90
28336;DHT22;15592;53.656;7.276;2023-03-25T09:52:03;8.80;99.90
28336;DHT22;15592;53.656;7.276;2023-03-25T09:54:36;8.90;99.90
28336;DHT22;15592;53.656;7.276;2023-03-25T09:57:08;9.10;99.90
28336;DHT22;15592;53.656;7.276;2023-03-25T09:59:41;9.40;99.90
28336;DHT22;15592;53.656;7.276;2023-03-25T10:08:23;9.60;99.90
28336;DHT22;15592;53.656;7.276;2023-03-25T10:16:36;9.80;99.90
28336;DHT22;15592;53.656;7.276;2023-03-25T10:22:49;9.90;99.90
28336;DHT22;15592;53.656;7.276;2023-03-25T10:25:22;10.00;99.90
28336;DHT22;15592;53.656;7.276;2023-03-25T10:27:51;9.90;99.90
28336;DHT22;15592;53.656;7.276;2023-03-25T10:33:04;9.70;99.90
28336;DHT22;15592;53.656;7.276;2023-03-25T10:35:35;9.50;99.90
28336;DHT22;15592;53.656;7.276;2023-03-25T10:38:09;9.20;99.90
28336;DHT22;15592;53.656;7.276;2023-03-25T10:40:38;9.00;99.90
28336;DHT22;15592;53.656;7.276;2023-03-25T10:45:47;9.30;99.90
28336;DHT22;15592;53.656;7.276;2023-03-25T10:48:24;9.60;99.90
28336;DHT22;15592;53.656;7.276;2023-03-25T10:51:08;9.80;99.90
28336;DHT22;15592;53.656;7.276;2023-03-25T10:53:35;9.90;99.90
28336;DHT22;15592;53.656;7.276;2023-03-25T10:58:33;10.10;99.90
28336;DHT22;15592;53.656;7.276;2023-03-25T11:01:15;10.00;99.90
28336;DHT22;15592;53.656;7.276;2023-03-25T11:03:43;10.10;99.90
28336;DHT22;15592;53.656;7.276;2023-03-25T11:06:25;10.30;99.90
28336;DHT22;15592;53.656;7.276;2023-03-25T11:11:33;10.50;99.90
28336;DHT22;15592;53.656;7.276;2023-03-25T11:13:59;10.60;99.90
28336;DHT22;15592;53.656;7.276;2023-03-25T11:16:25;10.50;99.90
28336;DHT22;15592;53.656;7.276;2023-03-25T11:18:52;10.50;99.90
28336;DHT22;15592;53.656;7.276;2023-03-25T11:21:18;10.40;99.90
28336;DHT22;15592;53.656;7.276;2023-03-25T11:23:49;10.40;99.90
28336;DHT22;15592;53.656;7.276;2023-03-25T11:26:26;10.50;99.90
28336;DHT22;15592;53.656;7.276;2023-03-25T11:29:00;10.60;99.90
28336;DHT22;15592;53.656;7.276;2023-03-25T11:31:28;10.50;99.90
28336;DHT22;15592;53.656;7.276;2023-03-25T11:36:37;10.40;99.90
28336;DHT22;15592;53.656;7.276;2023-03-25T11:41:50;10.60;99.90
28336;DHT22;15592;53.656;7.276;2023-03-25T11:44:29;10.80;99.90
28336;DHT22;15592;53.656;7.276;2023-03-25T11:47:07;10.80;99.90
28336;DHT22;15592;53.656;7.276;2023-03-25T11:49:36;10.70;99.90
28336;DHT22;15592;53.656;7.276;2023-03-25T11:52:23;10.60;99.90
28336;DHT22;15592;53.656;7.276;2023-03-25T11:54:53;10.70;99.90
28336;DHT22;15592;53.656;7.276;2023-03-25T11:57:25;10.80;99.90
28336;DHT22;15592;53.656;7.276;2023-03-25T12:00:01;10.90;99.90
28336;DHT22;15592;53.656;7.276;2023-03-25T12:02:40;11.10;99.90
28336;DHT22;15592;53.656;7.276;2023-03-25T12:05:11;11.10;99.90
28336;DHT22;15592;53.656;7.276;2023-03-25T12:07:48;11.20;99.90
28336;DHT22;15592;53.656;7.276;2023-03-25T12:10:46;11.20;99.90
28336;DHT22;15592;53.656;7.276;2023-03-25T12:15:59;11.10;99.90
28336;DHT22;15592;53.656;7.276;2023-03-25T12:19:13;11.00;99.90
28336;DHT22;15592;53.656;7.276;2023-03-25T12:27:01;10.90;99.90
28336;DHT22;15592;53.656;7.276;2023-03-25T12:29:50;10.60;99.90
28336;DHT22;15592;53.656;7.276;2023-03-25T12:32:48;10.20;99.90
28336;DHT22;15592;53.656;7.276;2023-03-25T12:35:20;9.90;99.90
28336;DHT22;15592;53.656;7.276;2023-03-25T12:38:06;9.80;99.90
28336;DHT22;15592;53.656;7.276;2023-03-25T12:52:34;10.50;99.90
28336;DHT22;15592;53.656;7.276;2023-03-25T13:03:43;10.70;99.90
28336;DHT22;15592;53.656;7.276;2023-03-25T13:06:22;10.60;99.90
28336;DHT22;15592;53.656;7.276;2023-03-25T13:09:04;10.60;99.90
28336;DHT22;15592;53.656;7.276;2023-03-25T13:14:01;10.60;99.90
28336;DHT22;15592;53.656;7.276;2023-03-25T13:16:31;10.70;99.90
28336;DHT22;15592;53.656;7.276;2023-03-25T13:19:05;10.80;99.90
28336;DHT22;15592;53.656;7.276;2023-03-25T13:21:36;10.80;99.90
28336;DHT22;15592;53.656;7.276;2023-03-25T13:26:44;10.90;99.90
28336;DHT22;15592;53.656;7.276;2023-03-25T13:29:27;10.80;99.90
28336;DHT22;15592;53.656;7.276;2023-03-25T13:31:56;10.60;99.90
28336;DHT22;15592;53.656;7.276;2023-03-25T13:34:41;10.20;99.90
28336;DHT22;15592;53.656;7.276;2023-03-25T13:37:13;10.10;99.90
28336;DHT22;15592;53.656;7.276;2023-03-25T13:42:33;9.80;99.90
28336;DHT22;15592;53.656;7.276;2023-03-25T13:45:03;9.80;99.90
28336;DHT22;15592;53.656;7.276;2023-03-25T13:47:35;9.70;99.90
28336;DHT22;15592;53.656;7.276;2023-03-25T13:52:50;9.70;99.90
28336;DHT22;15592;53.656;7.276;2023-03-25T13:55:23;9.60;99.90
28336;DHT22;15592;53.656;7.276;2023-03-25T14:06:56;8.90;99.90
28336;DHT22;15592;53.656;7.276;2023-03-25T14:09:36;8.90;99.90
28336;DHT22;15592;53.656;7.276;2023-03-25T14:12:16;8.90;99.90
28336;DHT22;15592;53.656;7.276;2023-03-25T14:14:47;8.90;99.90
28336;DHT22;15592;53.656;7.276;2023-03-25T14:17:15;8.90;99.90
28336;DHT22;15592;53.656;7.276;2023-03-25T14:19:47;8.90;99.90
28336;DHT22;15592;53.656;7.276;2023-03-25T14:22:20;8.80;99.90
28336;DHT22;15592;53.656;7.276;2023-03-25T14:24:46;8.90;99.90
28336;DHT22;15592;53.656;7.276;2023-03-25T14:27:26;8.80;99.90
28336;DHT22;15592;53.656;7.276;2023-03-25T14:48:41;9.20;99.90
28336;DHT22;15592;53.656;7.276;2023-03-25T14:53:41;9.10;99.90
28336;DHT22;15592;53.656;7.276;2023-03-25T14:56:16;9.00;99.90
28336;DHT22;15592;53.656;7.276;2023-03-25T14:58:43;8.90;99.90
28336;DHT22;15592;53.656;7.276;2023-03-25T15:01:13;8.90;99.90
28336;DHT22;15592;53.656;7.276;2023-03-25T15:03:40;8.80;99.90
28336;DHT22;15592;53.656;7.276;2023-03-25T15:06:13;8.90;99.90
28336;DHT22;15592;53.656;7.276;2023-03-25T15:08:43;8.90;99.90
28336;DHT22;15592;53.656;7.276;2023-03-25T15:11:16;9.00;99.90
28336;DHT22;15592;53.656;7.276;2023-03-25T15:13:48;9.00;99.90
28336;DHT22;15592;53.656;7.276;2023-03-25T15:19:11;9.00;99.90
28336;DHT22;15592;53.656;7.276;2023-03-25T15:24:31;9.10;99.90
28336;DHT22;15592;53.656;7.276;2023-03-25T15:27:01;9.10;99.90
28336;DHT22;15592;53.656;7.276;2023-03-25T15:44:09;9.10;99.90
28336;DHT22;15592;53.656;7.276;2023-03-25T15:54:56;9.00;99.90
28336;DHT22;15592;53.656;7.276;2023-03-25T15:57:39;9.00;99.90
28336;DHT22;15592;53.656;7.276;2023-03-25T16:00:11;9.00;99.90
28336;DHT22;15592;53.656;7.276;2023-03-25T16:02:46;9.00;99.90
28336;DHT22;15592;53.656;7.276;2023-03-25T16:05:14;8.90;99.90
28336;DHT22;15592;53.656;7.276;2023-03-25T16:07:40;8.90;99.90
28336;DHT22;15592;53.656;7.276;2023-03-25T16:10:29;8.90;99.90
28336;DHT22;15592;53.656;7.276;2023-03-25T16:13:06;8.90;99.90
28336;DHT22;15592;53.656;7.276;2023-03-25T16:15:34;8.90;99.90
28336;DHT22;15592;53.656;7.276;2023-03-25T16:18:04;8.90;99.90
28336;DHT22;15592;53.656;7.276;2023-03-25T16:20:32;8.90;99.90
28336;DHT22;15592;53.656;7.276;2023-03-25T16:22:59;9.00;99.90
28336;DHT22;15592;53.656;7.276;2023-03-25T16:25:30;9.00;99.90
28336;DHT22;15592;53.656;7.276;2023-03-25T16:28:01;9.00;99.90
28336;DHT22;15592;53.656;7.276;2023-03-25T16:30:38;9.00;99.90
28336;DHT22;15592;53.656;7.276;2023-03-25T16:35:48;8.90;99.90
28336;DHT22;15592;53.656;7.276;2023-03-25T16:38:18;8.90;99.90
28336;DHT22;15592;53.656;7.276;2023-03-25T16:40:44;8.90;99.90
28336;DHT22;15592;53.656;7.276;2023-03-25T16:43:18;8.90;99.90
28336;DHT22;15592;53.656;7.276;2023-03-25T16:45:46;8.90;99.90
28336;DHT22;15592;53.656;7.276;2023-03-25T16:48:18;8.90;99.90
28336;DHT22;15592;53.656;7.276;2023-03-25T16:50:46;8.80;99.90
28336;DHT22;15592;53.656;7.276;2023-03-25T16:53:14;8.90;99.90
28336;DHT22;15592;53.656;7.276;2023-03-25T16:55:46;8.90;99.90
28336;DHT22;15592;53.656;7.276;2023-03-25T16:58:24;8.90;99.90
28336;DHT22;15592;53.656;7.276;2023-03-25T17:00:53;8.80;99.90
28336;DHT22;15592;53.656;7.276;2023-03-25T17:03:44;8.80;99.90
28336;DHT22;15592;53.656;7.276;2023-03-25T17:06:29;8.90;99.90
28336;DHT22;15592;53.656;7.276;2023-03-25T17:09:01;8.80;99.90
28336;DHT22;15592;53.656;7.276;2023-03-25T17:11:30;8.80;99.90
28336;DHT22;15592;53.656;7.276;2023-03-25T17:14:05;8.80;99.90
28336;DHT22;15592;53.656;7.276;2023-03-25T17:16:33;8.80;99.90
28336;DHT22;15592;53.656;7.276;2023-03-25T17:19:01;8.80;99.90
28336;DHT22;15592;53.656;7.276;2023-03-25T17:21:32;8.80;99.90
28336;DHT22;15592;53.656;7.276;2023-03-25T17:24:06;8.80;99.90
28336;DHT22;15592;53.656;7.276;2023-03-25T17:27:02;8.70;99.90
28336;DHT22;15592;53.656;7.276;2023-03-25T17:29:29;8.70;99.90
28336;DHT22;15592;53.656;7.276;2023-03-25T17:31:57;8.70;99.90
28336;DHT22;15592;53.656;7.276;2023-03-25T17:34:24;8.70;99.90
28336;DHT22;15592;53.656;7.276;2023-03-25T17:36:59;8.70;99.90
28336;DHT22;15592;53.656;7.276;2023-03-25T17:39:29;8.70;99.90
28336;DHT22;15592;53.656;7.276;2023-03-25T17:44:34;8.70;99.90
28336;DHT22;15592;53.656;7.276;2023-03-25T17:47:02;8.70;99.90
28336;DHT22;15592;53.656;7.276;2023-03-25T17:49:27;8.70;99.90
28336;DHT22;15592;53.656;7.276;2023-03-25T17:51:53;8.70;99.90
28336;DHT22;15592;53.656;7.276;2023-03-25T17:54:19;8.70;99.90
28336;DHT22;15592;53.656;7.276;2023-03-25T17:56:45;8.60;99.90
28336;DHT22;15592;53.656;7.276;2023-03-25T17:59:20;8.60;99.90
28336;DHT22;15592;53.656;7.276;2023-03-25T18:01:46;8.70;99.90
28336;DHT22;15592;53.656;7.276;2023-03-25T18:04:14;8.60;99.90
28336;DHT22;15592;53.656;7.276;2023-03-25T18:06:40;8.60;99.90
28336;DHT22;15592;53.656;7.276;2023-03-25T18:09:17;8.60;99.90
28336;DHT22;15592;53.656;7.276;2023-03-25T18:11:45;8.60;99.90
28336;DHT22;15592;53.656;7.276;2023-03-25T18:14:11;8.60;99.90
28336;DHT22;15592;53.656;7.276;2023-03-25T18:16:37;8.60;99.90
28336;DHT22;15592;53.656;7.276;2023-03-25T18:19:02;8.60;99.90
28336;DHT22;15592;53.656;7.276;2023-03-25T18:21:28;8.60;99.90
28336;DHT22;15592;53.656;7.276;2023-03-25T18:23:53;8.60;99.90
28336;DHT22;15592;53.656;7.276;2023-03-25T18:26:19;8.60;99.90
28336;DHT22;15592;53.656;7.276;2023-03-25T18:28:46;8.60;99.90
28336;DHT22;15592;53.656;7.276;2023-03-25T18:31:16;8.60;99.90
28336;DHT22;15592;53.656;7.276;2023-03-25T18:33:48;8.60;99.90
28336;DHT22;15592;53.656;7.276;2023-03-25T18:36:15;8.60;99.90
28336;DHT22;15592;53.656;7.276;2023-03-25T18:38:41;8.60;99.90
28336;DHT22;15592;53.656;7.276;2023-03-25T18:41:09;8.60;99.90
28336;DHT22;15592;53.656;7.276;2023-03-25T18:43:35;8.60;99.90
28336;DHT22;15592;53.656;7.276;2023-03-25T18:46:01;8.60;99.90
28336;DHT22;15592;53.656;7.276;2023-03-25T18:48:28;8.60;99.90